sensor_id;sensor_type;location;lat;lon;timestamp;temperature;humidity
16271;DHT22;8243;49.048;8.396;2024-03-07T00:00:36;5.60;99.90
16271;DHT22;8243;49.048;8.396;2024-03-07T00:03:01;5.70;99.90
16271;DHT22;8243;49.048;8.396;2024-03-07T00:05:27;5.70;99.90
16271;DHT22;8243;49.048;8.396;2024-03-07T00:07:53;5.70;99.90
16271;DHT22;8243;49.048;8.396;2024-03-07T00:10:19;5.80;99.90
16271;DHT22;8243;49.048;8.396;2024-03-07T00:12:48;5.70;99.90
16271;DHT22;8243;49.048;8.396;2024-03-07T00:15:14;5.70;99.90
16271;DHT22;8243;49.048;8.396;2024-03-07T00:17:40;5.70;99.90
16271;DHT22;8243;49.048;8.396;2024-03-07T00:20:06;5.40;99.90
16271;DHT22;8243;49.048;8.396;2024-03-07T00:22:40;5.70;99.90
16271;DHT22;8243;49.048;8.396;2024-03-07T00:25:06;5.80;99.90
16271;DHT22;8243;49.048;8.396;2024-03-07T00:27:32;5.90;99.90
16271;DHT22;8243;49.048;8.396;2024-03-07T00:29:59;5.90;99.90
16271;DHT22;8243;49.048;8.396;2024-03-07T00:32:25;5.90;99.90
16271;DHT22;8243;49.048;8.396;2024-03-07T00:34:52;5.90;99.90
16271;DHT22;8243;49.048;8.396;2024-03-07T00:37:18;6.00;99.90
16271;DHT22;8243;49.048;8.396;2024-03-07T00:39:43;5.90;99.90
16271;DHT22;8243;49.048;8.396;2024-03-07T00:42:09;5.90;99.90
16271;DHT22;8243;49.048;8.396;2024-03-07T00:44:35;5.90;99.90
16271;DHT22;8243;49.048;8.396;2024-03-07T00:47:01;5.90;99.90
16271;DHT22;8243;49.048;8.396;2024-03-07T00:49:30;5.90;99.90
16271;DHT22;8243;49.048;8.396;2024-03-07T00:51:57;5.60;99.90
16271;DHT22;8243;49.048;8.396;2024-03-07T00:54:22;5.80;99.90
16271;DHT22;8243;49.048;8.396;2024-03-07T00:56:48;5.70;99.90
16271;DHT22;8243;49.048;8.396;2024-03-07T00:59:15;5.70;99.90
16271;DHT22;8243;49.048;8.396;2024-03-07T01:01:41;5.80;99.90
16271;DHT22;8243;49.048;8.396;2024-03-07T01:04:07;5.60;99.90
16271;DHT22;8243;49.048;8.396;2024-03-07T01:06:33;5.70;99.90
16271;DHT22;8243;49.048;8.396;2024-03-07T01:08:59;5.70;99.90
16271;DHT22;8243;49.048;8.396;2024-03-07T01:11:25;5.70;99.90
16271;DHT22;8243;49.048;8.396;2024-03-07T01:13:51;5.40;99.90
16271;DHT22;8243;49.048;8.396;2024-03-07T01:16:16;5.80;99.90
16271;DHT22;8243;49.048;8.396;2024-03-07T01:18:42;5.60;99.90
16271;DHT22;8243;49.048;8.396;2024-03-07T01:21:07;6.00;99.90
16271;DHT22;8243;49.048;8.396;2024-03-07T01:23:33;5.80;99.90
16271;DHT22;8243;49.048;8.396;2024-03-07T01:25:59;5.80;99.90
16271;DHT22;8243;49.048;8.396;2024-03-07T01:28:25;5.80;99.90
16271;DHT22;8243;49.048;8.396;2024-03-07T01:30:52;5.80;99.90
16271;DHT22;8243;49.048;8.396;2024-03-07T01:33:18;5.80;99.90
16271;DHT22;8243;49.048;8.396;2024-03-07T01:35:44;5.80;99.90
16271;DHT22;8243;49.048;8.396;2024-03-07T01:38:11;5.90;99.90
16271;DHT22;8243;49.048;8.396;2024-03-07T01:40:36;5.90;99.90
16271;DHT22;8243;49.048;8.396;2024-03-07T01:43:02;5.80;99.90
16271;DHT22;8243;49.048;8.396;2024-03-07T01:45:28;6.00;99.90
16271;DHT22;8243;49.048;8.396;2024-03-07T01:47:54;5.60;99.90
16271;DHT22;8243;49.048;8.396;2024-03-07T01:50:21;5.80;99.90
16271;DHT22;8243;49.048;8.396;2024-03-07T01:52:47;6.00;99.90
16271;DHT22;8243;49.048;8.396;2024-03-07T01:55:16;5.80;99.90
16271;DHT22;8243;49.048;8.396;2024-03-07T01:57:41;5.40;99.90
16271;DHT22;8243;49.048;8.396;2024-03-07T02:00:07;5.80;99.90
16271;DHT22;8243;49.048;8.396;2024-03-07T02:02:34;5.80;99.90
16271;DHT22;8243;49.048;8.396;2024-03-07T02:05:00;5.80;99.90
16271;DHT22;8243;49.048;8.396;2024-03-07T02:07:25;5.50;99.90
16271;DHT22;8243;49.048;8.396;2024-03-07T02:10:02;5.70;99.90
16271;DHT22;8243;49.048;8.396;2024-03-07T02:12:29;5.70;99.90
16271;DHT22;8243;49.048;8.396;2024-03-07T02:14:56;5.80;99.90
16271;DHT22;8243;49.048;8.396;2024-03-07T02:17:26;5.60;99.90
16271;DHT22;8243;49.048;8.396;2024-03-07T02:19:51;5.60;99.90
16271;DHT22;8243;49.048;8.396;2024-03-07T02:22:18;5.60;99.90
16271;DHT22;8243;49.048;8.396;2024-03-07T02:24:44;5.60;99.90
16271;DHT22;8243;49.048;8.396;2024-03-07T02:27:10;5.60;99.90
16271;DHT22;8243;49.048;8.396;2024-03-07T02:29:36;5.50;99.90
16271;DHT22;8243;49.048;8.396;2024-03-07T02:32:02;5.50;99.90
16271;DHT22;8243;49.048;8.396;2024-03-07T02:34:28;5.50;99.90
16271;DHT22;8243;49.048;8.396;2024-03-07T02:36:54;5.60;99.90
16271;DHT22;8243;49.048;8.396;2024-03-07T02:39:19;5.40;99.90
16271;DHT22;8243;49.048;8.396;2024-03-07T02:41:46;5.30;99.90
16271;DHT22;8243;49.048;8.396;2024-03-07T02:44:13;5.30;99.90
16271;DHT22;8243;49.048;8.396;2024-03-07T02:46:40;5.30;99.90
16271;DHT22;8243;49.048;8.396;2024-03-07T02:49:05;5.30;99.90
16271;DHT22;8243;49.048;8.396;2024-03-07T02:51:31;5.20;99.90
16271;DHT22;8243;49.048;8.396;2024-03-07T02:53:57;5.30;99.90
16271;DHT22;8243;49.048;8.396;2024-03-07T02:56:23;5.20;99.90
16271;DHT22;8243;49.048;8.396;2024-03-07T02:58:49;5.00;99.90
16271;DHT22;8243;49.048;8.396;2024-03-07T03:01:14;5.10;99.90
16271;DHT22;8243;49.048;8.396;2024-03-07T03:03:40;4.80;99.90
16271;DHT22;8243;49.048;8.396;2024-03-07T03:06:08;4.80;99.90
16271;DHT22;8243;49.048;8.396;2024-03-07T03:08:34;4.90;99.90
16271;DHT22;8243;49.048;8.396;2024-03-07T03:11:00;4.80;99.90
16271;DHT22;8243;49.048;8.396;2024-03-07T03:13:26;4.70;99.90
16271;DHT22;8243;49.048;8.396;2024-03-07T03:15:53;4.30;99.90
16271;DHT22;8243;49.048;8.396;2024-03-07T03:18:19;4.20;99.90
16271;DHT22;8243;49.048;8.396;2024-03-07T03:20:46;4.60;99.90
16271;DHT22;8243;49.048;8.396;2024-03-07T03:23:13;4.60;99.90
16271;DHT22;8243;49.048;8.396;2024-03-07T03:25:40;4.50;99.90
16271;DHT22;8243;49.048;8.396;2024-03-07T03:28:07;4.40;99.90
16271;DHT22;8243;49.048;8.396;2024-03-07T03:30:38;4.40;99.90
16271;DHT22;8243;49.048;8.396;2024-03-07T03:33:05;4.30;99.90
16271;DHT22;8243;49.048;8.396;2024-03-07T03:35:33;4.30;99.90
16271;DHT22;8243;49.048;8.396;2024-03-07T03:37:58;4.20;99.90
16271;DHT22;8243;49.048;8.396;2024-03-07T03:40:24;4.20;99.90
16271;DHT22;8243;49.048;8.396;2024-03-07T03:42:50;4.30;99.90
16271;DHT22;8243;49.048;8.396;2024-03-07T03:45:15;4.00;99.90
16271;DHT22;8243;49.048;8.396;2024-03-07T03:47:42;3.90;99.90
16271;DHT22;8243;49.048;8.396;2024-03-07T03:50:10;3.90;99.90
16271;DHT22;8243;49.048;8.396;2024-03-07T03:52:36;4.00;99.90
16271;DHT22;8243;49.048;8.396;2024-03-07T03:55:02;3.90;99.90
16271;DHT22;8243;49.048;8.396;2024-03-07T03:57:30;3.80;99.90
16271;DHT22;8243;49.048;8.396;2024-03-07T03:59:56;3.60;99.90
16271;DHT22;8243;49.048;8.396;2024-03-07T04:02:22;3.80;99.90
16271;DHT22;8243;49.048;8.396;2024-03-07T04:04:51;3.80;99.90
16271;DHT22;8243;49.048;8.396;2024-03-07T04:07:18;3.80;99.90
16271;DHT22;8243;49.048;8.396;2024-03-07T04:09:44;3.70;99.90
16271;DHT22;8243;49.048;8.396;2024-03-07T04:12:11;3.60;99.90
16271;DHT22;8243;49.048;8.396;2024-03-07T04:14:40;3.50;99.90
16271;DHT22;8243;49.048;8.396;2024-03-07T04:17:10;3.30;99.90
16271;DHT22;8243;49.048;8.396;2024-03-07T04:19:41;3.60;99.90
16271;DHT22;8243;49.048;8.396;2024-03-07T04:22:07;3.50;99.90
16271;DHT22;8243;49.048;8.396;2024-03-07T04:24:36;3.50;99.90
16271;DHT22;8243;49.048;8.396;2024-03-07T04:27:02;3.50;99.90
16271;DHT22;8243;49.048;8.396;2024-03-07T04:29:32;3.50;99.90
16271;DHT22;8243;49.048;8.396;2024-03-07T04:31:58;3.40;99.90
16271;DHT22;8243;49.048;8.396;2024-03-07T04:34:25;3.40;99.90
16271;DHT22;8243;49.048;8.396;2024-03-07T04:36:51;3.30;99.90
16271;DHT22;8243;49.048;8.396;2024-03-07T04:39:16;3.20;99.90
16271;DHT22;8243;49.048;8.396;2024-03-07T04:41:53;3.10;99.90
16271;DHT22;8243;49.048;8.396;2024-03-07T04:44:20;3.30;99.90
16271;DHT22;8243;49.048;8.396;2024-03-07T04:46:48;3.20;99.90
16271;DHT22;8243;49.048;8.396;2024-03-07T04:49:15;3.10;99.90
16271;DHT22;8243;49.048;8.396;2024-03-07T04:51:41;3.10;99.90
16271;DHT22;8243;49.048;8.396;2024-03-07T04:54:07;3.10;99.90
16271;DHT22;8243;49.048;8.396;2024-03-07T04:56:32;3.20;99.90
16271;DHT22;8243;49.048;8.396;2024-03-07T04:58:58;3.00;99.90
16271;DHT22;8243;49.048;8.396;2024-03-07T05:01:24;2.90;99.90
16271;DHT22;8243;49.048;8.396;2024-03-07T05:03:50;3.10;99.90
16271;DHT22;8243;49.048;8.396;2024-03-07T05:06:17;2.90;99.90
16271;DHT22;8243;49.048;8.396;2024-03-07T05:08:43;3.00;99.90
16271;DHT22;8243;49.048;8.396;2024-03-07T05:11:15;2.90;99.90
16271;DHT22;8243;49.048;8.396;2024-03-07T05:13:41;3.10;99.90
16271;DHT22;8243;49.048;8.396;2024-03-07T05:16:07;3.10;99.90
16271;DHT22;8243;49.048;8.396;2024-03-07T05:18:33;3.00;99.90
16271;DHT22;8243;49.048;8.396;2024-03-07T05:20:59;2.80;99.90
16271;DHT22;8243;49.048;8.396;2024-03-07T05:23:44;2.70;99.90
16271;DHT22;8243;49.048;8.396;2024-03-07T05:26:11;2.90;99.90
16271;DHT22;8243;49.048;8.396;2024-03-07T05:28:41;2.70;99.90
16271;DHT22;8243;49.048;8.396;2024-03-07T05:31:06;2.80;99.90
16271;DHT22;8243;49.048;8.396;2024-03-07T05:33:32;2.90;99.90
16271;DHT22;8243;49.048;8.396;2024-03-07T05:35:57;2.90;99.90
16271;DHT22;8243;49.048;8.396;2024-03-07T05:38:44;2.70;99.90
16271;DHT22;8243;49.048;8.396;2024-03-07T05:41:13;2.50;99.90
16271;DHT22;8243;49.048;8.396;2024-03-07T05:43:45;2.60;99.90
16271;DHT22;8243;49.048;8.396;2024-03-07T05:46:13;2.60;99.90
16271;DHT22;8243;49.048;8.396;2024-03-07T05:48:38;2.70;99.90
16271;DHT22;8243;49.048;8.396;2024-03-07T05:51:04;2.60;99.90
16271;DHT22;8243;49.048;8.396;2024-03-07T05:53:30;2.60;99.90
16271;DHT22;8243;49.048;8.396;2024-03-07T05:55:55;2.50;99.90
16271;DHT22;8243;49.048;8.396;2024-03-07T05:58:21;2.40;99.90
16271;DHT22;8243;49.048;8.396;2024-03-07T06:00:47;2.50;99.90
16271;DHT22;8243;49.048;8.396;2024-03-07T06:03:19;2.50;99.90
16271;DHT22;8243;49.048;8.396;2024-03-07T06:05:46;2.60;99.90
16271;DHT22;8243;49.048;8.396;2024-03-07T06:08:14;2.30;99.90
16271;DHT22;8243;49.048;8.396;2024-03-07T06:10:42;2.30;99.90
16271;DHT22;8243;49.048;8.396;2024-03-07T06:13:16;2.30;99.90
16271;DHT22;8243;49.048;8.396;2024-03-07T06:15:46;2.30;99.90
16271;DHT22;8243;49.048;8.396;2024-03-07T06:18:12;2.30;99.90
16271;DHT22;8243;49.048;8.396;2024-03-07T06:20:48;2.40;99.90
16271;DHT22;8243;49.048;8.396;2024-03-07T06:23:13;2.60;99.90
16271;DHT22;8243;49.048;8.396;2024-03-07T06:25:42;2.40;99.90
16271;DHT22;8243;49.048;8.396;2024-03-07T06:28:18;2.70;99.90
16271;DHT22;8243;49.048;8.396;2024-03-07T06:30:46;3.00;99.90
16271;DHT22;8243;49.048;8.396;2024-03-07T06:33:13;3.20;99.90
16271;DHT22;8243;49.048;8.396;2024-03-07T06:35:39;3.40;99.90
16271;DHT22;8243;49.048;8.396;2024-03-07T06:38:06;3.50;99.90
16271;DHT22;8243;49.048;8.396;2024-03-07T06:40:32;3.80;99.90
16271;DHT22;8243;49.048;8.396;2024-03-07T06:43:01;4.10;99.90
16271;DHT22;8243;49.048;8.396;2024-03-07T06:45:29;4.00;99.90
16271;DHT22;8243;49.048;8.396;2024-03-07T06:47:55;4.20;99.90
16271;DHT22;8243;49.048;8.396;2024-03-07T06:50:20;4.40;99.90
16271;DHT22;8243;49.048;8.396;2024-03-07T06:52:47;4.50;99.90
16271;DHT22;8243;49.048;8.396;2024-03-07T06:55:16;4.70;99.90
16271;DHT22;8243;49.048;8.396;2024-03-07T06:57:45;5.10;99.90
16271;DHT22;8243;49.048;8.396;2024-03-07T07:00:12;5.20;99.90
16271;DHT22;8243;49.048;8.396;2024-03-07T07:02:39;5.70;99.90
16271;DHT22;8243;49.048;8.396;2024-03-07T07:05:07;5.90;99.90
16271;DHT22;8243;49.048;8.396;2024-03-07T07:07:37;5.90;99.90
16271;DHT22;8243;49.048;8.396;2024-03-07T07:10:04;6.00;99.90
16271;DHT22;8243;49.048;8.396;2024-03-07T07:12:30;5.80;99.90
16271;DHT22;8243;49.048;8.396;2024-03-07T07:14:55;6.20;99.90
16271;DHT22;8243;49.048;8.396;2024-03-07T07:17:21;6.10;99.90
16271;DHT22;8243;49.048;8.396;2024-03-07T07:19:49;6.30;99.90
16271;DHT22;8243;49.048;8.396;2024-03-07T07:22:14;6.50;99.90
16271;DHT22;8243;49.048;8.396;2024-03-07T07:24:40;6.50;99.90
16271;DHT22;8243;49.048;8.396;2024-03-07T07:27:05;6.80;99.40
16271;DHT22;8243;49.048;8.396;2024-03-07T07:29:32;7.10;96.10
16271;DHT22;8243;49.048;8.396;2024-03-07T07:31:58;7.00;94.20
16271;DHT22;8243;49.048;8.396;2024-03-07T07:34:23;6.90;93.00
16271;DHT22;8243;49.048;8.396;2024-03-07T07:36:49;7.10;91.10
16271;DHT22;8243;49.048;8.396;2024-03-07T07:39:14;7.40;88.40
16271;DHT22;8243;49.048;8.396;2024-03-07T07:41:42;7.60;83.80
16271;DHT22;8243;49.048;8.396;2024-03-07T07:44:08;7.80;80.50
16271;DHT22;8243;49.048;8.396;2024-03-07T07:46:34;7.80;74.00
16271;DHT22;8243;49.048;8.396;2024-03-07T07:49:01;7.80;74.50
16271;DHT22;8243;49.048;8.396;2024-03-07T07:51:27;7.80;70.50
16271;DHT22;8243;49.048;8.396;2024-03-07T07:53:53;7.80;69.10
16271;DHT22;8243;49.048;8.396;2024-03-07T07:56:22;7.70;69.00
16271;DHT22;8243;49.048;8.396;2024-03-07T07:58:48;8.30;66.10
16271;DHT22;8243;49.048;8.396;2024-03-07T08:01:14;8.30;59.70
16271;DHT22;8243;49.048;8.396;2024-03-07T08:03:43;8.50;61.10
16271;DHT22;8243;49.048;8.396;2024-03-07T08:06:09;8.80;56.10
16271;DHT22;8243;49.048;8.396;2024-03-07T08:08:34;8.50;54.70
16271;DHT22;8243;49.048;8.396;2024-03-07T08:11:00;8.40;55.30
16271;DHT22;8243;49.048;8.396;2024-03-07T08:13:26;7.90;54.70
16271;DHT22;8243;49.048;8.396;2024-03-07T08:15:52;7.90;55.40
16271;DHT22;8243;49.048;8.396;2024-03-07T08:18:19;8.00;54.00
16271;DHT22;8243;49.048;8.396;2024-03-07T08:20:45;8.10;54.70
16271;DHT22;8243;49.048;8.396;2024-03-07T08:23:11;8.50;50.80
16271;DHT22;8243;49.048;8.396;2024-03-07T08:25:38;8.30;50.80
16271;DHT22;8243;49.048;8.396;2024-03-07T08:28:07;8.50;47.90
16271;DHT22;8243;49.048;8.396;2024-03-07T08:30:33;8.40;49.50
16271;DHT22;8243;49.048;8.396;2024-03-07T08:33:00;8.40;46.60
16271;DHT22;8243;49.048;8.396;2024-03-07T08:35:28;8.40;45.30
16271;DHT22;8243;49.048;8.396;2024-03-07T08:37:55;8.10;46.20
16271;DHT22;8243;49.048;8.396;2024-03-07T08:40:22;8.30;45.50
16271;DHT22;8243;49.048;8.396;2024-03-07T08:42:53;8.90;43.40
16271;DHT22;8243;49.048;8.396;2024-03-07T08:45:21;8.40;42.50
16271;DHT22;8243;49.048;8.396;2024-03-07T08:47:49;8.50;41.00
16271;DHT22;8243;49.048;8.396;2024-03-07T08:50:16;8.40;40.90
16271;DHT22;8243;49.048;8.396;2024-03-07T08:52:43;8.70;39.60
16271;DHT22;8243;49.048;8.396;2024-03-07T08:55:12;8.60;38.50
16271;DHT22;8243;49.048;8.396;2024-03-07T08:57:38;8.70;39.00
16271;DHT22;8243;49.048;8.396;2024-03-07T09:00:05;8.50;39.00
16271;DHT22;8243;49.048;8.396;2024-03-07T09:02:35;8.60;39.40
16271;DHT22;8243;49.048;8.396;2024-03-07T09:05:04;8.30;39.70
16271;DHT22;8243;49.048;8.396;2024-03-07T09:07:30;9.30;36.90
16271;DHT22;8243;49.048;8.396;2024-03-07T09:09:56;8.90;35.10
16271;DHT22;8243;49.048;8.396;2024-03-07T09:12:22;9.20;34.80
16271;DHT22;8243;49.048;8.396;2024-03-07T09:14:50;8.70;36.10
16271;DHT22;8243;49.048;8.396;2024-03-07T09:17:17;8.80;36.50
16271;DHT22;8243;49.048;8.396;2024-03-07T09:19:43;9.70;34.70
16271;DHT22;8243;49.048;8.396;2024-03-07T09:22:08;10.10;30.10
16271;DHT22;8243;49.048;8.396;2024-03-07T09:24:34;9.90;31.30
16271;DHT22;8243;49.048;8.396;2024-03-07T09:27:00;10.00;29.80
16271;DHT22;8243;49.048;8.396;2024-03-07T09:29:26;10.20;26.20
16271;DHT22;8243;49.048;8.396;2024-03-07T09:31:53;10.60;25.30
16271;DHT22;8243;49.048;8.396;2024-03-07T09:34:20;10.10;24.70
16271;DHT22;8243;49.048;8.396;2024-03-07T09:36:48;9.70;26.90
16271;DHT22;8243;49.048;8.396;2024-03-07T09:39:17;9.20;27.80
16271;DHT22;8243;49.048;8.396;2024-03-07T09:41:44;9.80;26.10
16271;DHT22;8243;49.048;8.396;2024-03-07T09:44:12;10.50;23.60
16271;DHT22;8243;49.048;8.396;2024-03-07T09:46:40;10.30;24.40
16271;DHT22;8243;49.048;8.396;2024-03-07T09:49:05;9.90;25.10
16271;DHT22;8243;49.048;8.396;2024-03-07T09:51:35;9.40;25.60
16271;DHT22;8243;49.048;8.396;2024-03-07T09:54:01;8.90;26.40
16271;DHT22;8243;49.048;8.396;2024-03-07T09:56:29;8.50;28.70
16271;DHT22;8243;49.048;8.396;2024-03-07T09:58:58;8.90;27.80
16271;DHT22;8243;49.048;8.396;2024-03-07T10:01:33;8.70;28.20
16271;DHT22;8243;49.048;8.396;2024-03-07T10:04:00;8.50;28.90
16271;DHT22;8243;49.048;8.396;2024-03-07T10:06:35;8.50;29.30
16271;DHT22;8243;49.048;8.396;2024-03-07T10:09:01;8.80;28.80
16271;DHT22;8243;49.048;8.396;2024-03-07T10:11:27;8.90;28.20
16271;DHT22;8243;49.048;8.396;2024-03-07T10:13:56;8.90;28.30
16271;DHT22;8243;49.048;8.396;2024-03-07T10:16:22;8.70;28.90
16271;DHT22;8243;49.048;8.396;2024-03-07T10:18:54;8.70;28.90
16271;DHT22;8243;49.048;8.396;2024-03-07T10:21:20;8.70;29.00
16271;DHT22;8243;49.048;8.396;2024-03-07T10:23:46;8.80;28.50
16271;DHT22;8243;49.048;8.396;2024-03-07T10:26:12;8.90;27.90
16271;DHT22;8243;49.048;8.396;2024-03-07T10:28:38;9.00;29.10
16271;DHT22;8243;49.048;8.396;2024-03-07T10:31:04;9.00;29.10
16271;DHT22;8243;49.048;8.396;2024-03-07T10:33:37;9.10;28.80
16271;DHT22;8243;49.048;8.396;2024-03-07T10:36:03;8.70;29.00
16271;DHT22;8243;49.048;8.396;2024-03-07T10:38:28;8.50;29.20
16271;DHT22;8243;49.048;8.396;2024-03-07T10:40:55;8.20;30.40
16271;DHT22;8243;49.048;8.396;2024-03-07T10:43:22;8.40;31.30
16271;DHT22;8243;49.048;8.396;2024-03-07T10:45:50;8.70;30.20
16271;DHT22;8243;49.048;8.396;2024-03-07T10:48:26;8.70;31.00
16271;DHT22;8243;49.048;8.396;2024-03-07T10:51:18;8.80;30.80
16271;DHT22;8243;49.048;8.396;2024-03-07T10:59:37;8.80;30.00
16271;DHT22;8243;49.048;8.396;2024-03-07T11:04:46;8.20;31.80
16271;DHT22;8243;49.048;8.396;2024-03-07T11:07:14;8.10;32.70
16271;DHT22;8243;49.048;8.396;2024-03-07T11:09:40;8.00;33.90
16271;DHT22;8243;49.048;8.396;2024-03-07T11:12:08;7.80;34.80
16271;DHT22;8243;49.048;8.396;2024-03-07T11:14:36;7.90;34.80
16271;DHT22;8243;49.048;8.396;2024-03-07T11:17:03;8.20;35.20
16271;DHT22;8243;49.048;8.396;2024-03-07T11:19:31;8.70;32.40
16271;DHT22;8243;49.048;8.396;2024-03-07T11:22:02;8.70;33.30
16271;DHT22;8243;49.048;8.396;2024-03-07T11:24:31;8.60;33.10
16271;DHT22;8243;49.048;8.396;2024-03-07T11:27:04;8.40;33.30
16271;DHT22;8243;49.048;8.396;2024-03-07T11:32:09;8.70;33.50
16271;DHT22;8243;49.048;8.396;2024-03-07T11:34:38;9.00;32.20
16271;DHT22;8243;49.048;8.396;2024-03-07T11:37:04;8.30;34.30
16271;DHT22;8243;49.048;8.396;2024-03-07T11:42:07;8.60;33.20
16271;DHT22;8243;49.048;8.396;2024-03-07T11:44:33;8.80;34.10
16271;DHT22;8243;49.048;8.396;2024-03-07T11:47:05;9.10;31.40
16271;DHT22;8243;49.048;8.396;2024-03-07T11:49:35;8.90;33.60
16271;DHT22;8243;49.048;8.396;2024-03-07T11:52:04;8.90;32.80
16271;DHT22;8243;49.048;8.396;2024-03-07T11:54:37;8.90;33.40
16271;DHT22;8243;49.048;8.396;2024-03-07T11:57:06;8.80;33.30
16271;DHT22;8243;49.048;8.396;2024-03-07T11:59:39;9.30;32.40
16271;DHT22;8243;49.048;8.396;2024-03-07T12:02:05;9.80;31.10
16271;DHT22;8243;49.048;8.396;2024-03-07T12:04:31;9.80;30.60
16271;DHT22;8243;49.048;8.396;2024-03-07T12:07:00;9.40;32.10
16271;DHT22;8243;49.048;8.396;2024-03-07T12:09:25;9.20;31.40
16271;DHT22;8243;49.048;8.396;2024-03-07T12:11:51;9.20;32.70
16271;DHT22;8243;49.048;8.396;2024-03-07T12:14:21;9.10;32.90
16271;DHT22;8243;49.048;8.396;2024-03-07T12:16:47;8.80;33.60
16271;DHT22;8243;49.048;8.396;2024-03-07T12:19:12;9.00;33.60
16271;DHT22;8243;49.048;8.396;2024-03-07T12:21:43;9.00;33.60
16271;DHT22;8243;49.048;8.396;2024-03-07T12:24:15;9.10;34.60
16271;DHT22;8243;49.048;8.396;2024-03-07T12:26:41;9.60;31.70
16271;DHT22;8243;49.048;8.396;2024-03-07T12:29:11;9.70;31.00
16271;DHT22;8243;49.048;8.396;2024-03-07T12:31:41;10.00;29.00
16271;DHT22;8243;49.048;8.396;2024-03-07T12:34:08;10.20;28.20
16271;DHT22;8243;49.048;8.396;2024-03-07T12:36:37;9.80;29.40
16271;DHT22;8243;49.048;8.396;2024-03-07T12:39:25;9.90;30.60
16271;DHT22;8243;49.048;8.396;2024-03-07T12:41:52;10.00;29.20
16271;DHT22;8243;49.048;8.396;2024-03-07T12:44:46;10.10;29.30
16271;DHT22;8243;49.048;8.396;2024-03-07T12:47:15;10.00;28.80
16271;DHT22;8243;49.048;8.396;2024-03-07T12:49:45;10.00;29.30
16271;DHT22;8243;49.048;8.396;2024-03-07T12:52:11;10.20;28.50
16271;DHT22;8243;49.048;8.396;2024-03-07T12:54:41;10.40;28.40
16271;DHT22;8243;49.048;8.396;2024-03-07T12:57:10;10.30;26.90
16271;DHT22;8243;49.048;8.396;2024-03-07T12:59:37;9.70;29.30
16271;DHT22;8243;49.048;8.396;2024-03-07T13:02:10;9.80;28.70
16271;DHT22;8243;49.048;8.396;2024-03-07T13:04:38;10.20;28.80
16271;DHT22;8243;49.048;8.396;2024-03-07T13:07:07;10.30;27.90
16271;DHT22;8243;49.048;8.396;2024-03-07T13:09:33;10.30;26.60
16271;DHT22;8243;49.048;8.396;2024-03-07T13:11:59;10.20;26.30
16271;DHT22;8243;49.048;8.396;2024-03-07T13:14:34;10.00;27.00
16271;DHT22;8243;49.048;8.396;2024-03-07T13:17:03;9.90;28.00
16271;DHT22;8243;49.048;8.396;2024-03-07T13:19:31;9.90;28.60
16271;DHT22;8243;49.048;8.396;2024-03-07T13:21:57;9.80;29.20
16271;DHT22;8243;49.048;8.396;2024-03-07T13:24:29;10.00;28.50
16271;DHT22;8243;49.048;8.396;2024-03-07T13:27:01;10.00;27.30
16271;DHT22;8243;49.048;8.396;2024-03-07T13:29:33;9.70;28.80
16271;DHT22;8243;49.048;8.396;2024-03-07T13:32:05;9.60;29.80
16271;DHT22;8243;49.048;8.396;2024-03-07T13:34:31;9.60;29.60
16271;DHT22;8243;49.048;8.396;2024-03-07T13:36:58;9.70;29.20
16271;DHT22;8243;49.048;8.396;2024-03-07T13:39:27;9.80;28.70
16271;DHT22;8243;49.048;8.396;2024-03-07T13:42:00;9.80;28.10
16271;DHT22;8243;49.048;8.396;2024-03-07T13:44:28;9.90;27.70
16271;DHT22;8243;49.048;8.396;2024-03-07T13:46:54;9.90;28.00
16271;DHT22;8243;49.048;8.396;2024-03-07T13:49:22;10.10;27.00
16271;DHT22;8243;49.048;8.396;2024-03-07T13:51:51;10.00;26.90
16271;DHT22;8243;49.048;8.396;2024-03-07T13:54:19;10.20;26.10
16271;DHT22;8243;49.048;8.396;2024-03-07T13:57:29;10.50;25.60
16271;DHT22;8243;49.048;8.396;2024-03-07T14:06:07;10.60;25.20
16271;DHT22;8243;49.048;8.396;2024-03-07T14:11:19;10.60;25.10
16271;DHT22;8243;49.048;8.396;2024-03-07T14:31:31;10.40;26.60
16271;DHT22;8243;49.048;8.396;2024-03-07T14:34:08;10.30;26.10
16271;DHT22;8243;49.048;8.396;2024-03-07T14:36:44;10.00;26.80
16271;DHT22;8243;49.048;8.396;2024-03-07T14:39:12;10.00;28.10
16271;DHT22;8243;49.048;8.396;2024-03-07T14:42:06;9.90;28.70
16271;DHT22;8243;49.048;8.396;2024-03-07T14:44:36;9.80;28.70
16271;DHT22;8243;49.048;8.396;2024-03-07T14:47:04;9.70;29.10
16271;DHT22;8243;49.048;8.396;2024-03-07T14:49:37;9.90;29.60
16271;DHT22;8243;49.048;8.396;2024-03-07T14:52:02;9.90;30.00
16271;DHT22;8243;49.048;8.396;2024-03-07T14:54:29;9.70;29.50
16271;DHT22;8243;49.048;8.396;2024-03-07T14:56:55;9.60;30.20
16271;DHT22;8243;49.048;8.396;2024-03-07T14:59:20;9.80;30.30
16271;DHT22;8243;49.048;8.396;2024-03-07T15:01:46;9.70;31.10
16271;DHT22;8243;49.048;8.396;2024-03-07T15:04:13;9.90;30.20
16271;DHT22;8243;49.048;8.396;2024-03-07T15:06:41;10.00;29.20
16271;DHT22;8243;49.048;8.396;2024-03-07T15:09:07;9.90;30.30
16271;DHT22;8243;49.048;8.396;2024-03-07T15:11:36;9.80;31.10
16271;DHT22;8243;49.048;8.396;2024-03-07T15:14:08;9.60;31.30
16271;DHT22;8243;49.048;8.396;2024-03-07T15:16:38;9.60;31.60
16271;DHT22;8243;49.048;8.396;2024-03-07T15:19:04;9.60;31.70
16271;DHT22;8243;49.048;8.396;2024-03-07T15:21:30;9.50;32.40
16271;DHT22;8243;49.048;8.396;2024-03-07T15:23:57;9.50;32.10
16271;DHT22;8243;49.048;8.396;2024-03-07T15:26:22;9.60;32.80
16271;DHT22;8243;49.048;8.396;2024-03-07T15:28:50;9.50;32.90
16271;DHT22;8243;49.048;8.396;2024-03-07T15:31:16;9.60;33.20
16271;DHT22;8243;49.048;8.396;2024-03-07T15:33:45;9.50;33.00
16271;DHT22;8243;49.048;8.396;2024-03-07T15:36:12;9.40;33.30
16271;DHT22;8243;49.048;8.396;2024-03-07T15:38:38;9.30;32.80
16271;DHT22;8243;49.048;8.396;2024-03-07T15:41:04;9.20;34.00
16271;DHT22;8243;49.048;8.396;2024-03-07T15:43:30;9.20;34.10
16271;DHT22;8243;49.048;8.396;2024-03-07T15:45:56;9.30;34.80
16271;DHT22;8243;49.048;8.396;2024-03-07T15:48:25;9.40;34.00
16271;DHT22;8243;49.048;8.396;2024-03-07T15:50:51;9.40;34.00
16271;DHT22;8243;49.048;8.396;2024-03-07T15:53:18;9.50;35.00
16271;DHT22;8243;49.048;8.396;2024-03-07T15:55:43;9.50;34.20
16271;DHT22;8243;49.048;8.396;2024-03-07T15:58:09;9.30;35.00
16271;DHT22;8243;49.048;8.396;2024-03-07T16:00:36;9.30;34.90
16271;DHT22;8243;49.048;8.396;2024-03-07T16:03:04;9.20;35.10
16271;DHT22;8243;49.048;8.396;2024-03-07T16:05:31;9.10;36.00
16271;DHT22;8243;49.048;8.396;2024-03-07T16:07:58;9.10;36.70
16271;DHT22;8243;49.048;8.396;2024-03-07T16:10:29;9.10;36.50
16271;DHT22;8243;49.048;8.396;2024-03-07T16:12:59;9.10;37.20
16271;DHT22;8243;49.048;8.396;2024-03-07T16:15:25;9.10;37.20
16271;DHT22;8243;49.048;8.396;2024-03-07T16:17:52;9.00;37.80
16271;DHT22;8243;49.048;8.396;2024-03-07T16:20:20;9.10;38.30
16271;DHT22;8243;49.048;8.396;2024-03-07T16:22:45;9.00;38.40
16271;DHT22;8243;49.048;8.396;2024-03-07T16:25:15;9.00;38.70
16271;DHT22;8243;49.048;8.396;2024-03-07T16:27:42;9.00;39.10
16271;DHT22;8243;49.048;8.396;2024-03-07T16:30:12;9.00;39.20
16271;DHT22;8243;49.048;8.396;2024-03-07T16:32:39;9.00;37.60
16271;DHT22;8243;49.048;8.396;2024-03-07T16:35:06;9.00;37.90
16271;DHT22;8243;49.048;8.396;2024-03-07T16:37:38;8.90;38.50
16271;DHT22;8243;49.048;8.396;2024-03-07T16:40:08;8.90;38.00
16271;DHT22;8243;49.048;8.396;2024-03-07T16:42:38;9.00;37.10